createdAt,value
2024-05-09T00:00:22.453Z,51.28
2024-05-09T00:01:21.571Z,52.12
2024-05-09T00:02:23.861Z,51.40
2024-05-09T00:03:26.106Z,51.24
2024-05-09T00:04:28.247Z,51.84
2024-05-09T00:05:30.974Z,51.76
2024-05-09T00:06:33.544Z,51.96
2024-05-09T00:07:36.384Z,52.86
2024-05-09T00:08:38.750Z,52.21
2024-05-09T00:09:40.820Z,53.36
2024-05-09T00:10:43.413Z,53.44
2024-05-09T00:11:47.513Z,52.54
2024-05-09T00:12:49.789Z,53.51
2024-05-09T00:13:52.305Z,52.59
2024-05-09T00:14:54.544Z,52.77
2024-05-09T00:15:56.880Z,52.90
2024-05-09T00:16:59.297Z,53.14
2024-05-09T00:18:02.389Z,53.11
2024-05-09T00:19:05.019Z,52.82
2024-05-09T00:20:14.413Z,52.65
2024-05-09T00:21:13.331Z,53.18
2024-05-09T00:22:15.519Z,53.18
2024-05-09T00:23:17.777Z,53.16
2024-05-09T00:24:19.964Z,52.65
2024-05-09T00:25:24.045Z,53.14
2024-05-09T00:26:26.254Z,53.71
2024-05-09T00:27:28.318Z,53.47
2024-05-09T00:28:30.296Z,54.33
2024-05-09T00:29:32.574Z,54.47
2024-05-09T00:30:36.759Z,54.26
2024-05-09T00:31:38.978Z,54.37
2024-05-09T00:32:41.555Z,54.31
2024-05-09T00:33:43.860Z,55.25
2024-05-09T00:34:46.186Z,55.47
2024-05-09T00:35:48.400Z,55.36
2024-05-09T00:36:50.749Z,55.36
2024-05-09T00:37:52.881Z,55.60
2024-05-09T00:38:55.129Z,55.45
2024-05-09T00:39:57.732Z,55.32
2024-05-09T00:41:00.045Z,54.83
2024-05-09T00:42:02.526Z,54.83
2024-05-09T00:43:06.631Z,55.18
2024-05-09T00:44:10.351Z,55.10
2024-05-09T00:45:12.624Z,55.64
2024-05-09T00:46:16.317Z,55.57
2024-05-09T00:47:18.741Z,55.76
2024-05-09T00:48:21.726Z,55.76
2024-05-09T00:49:27.354Z,55.65
2024-05-09T00:50:36.071Z,55.78
2024-05-09T00:51:35.167Z,55.79
2024-05-09T00:52:37.986Z,56.01
2024-05-09T00:53:40.297Z,56.26
2024-05-09T00:54:42.679Z,56.48
2024-05-09T00:55:47.205Z,56.48
2024-05-09T00:56:51.968Z,56.75
2024-05-09T00:57:54.603Z,56.20
2024-05-09T00:58:57.367Z,56.26
2024-05-09T00:59:59.914Z,56.80
2024-05-09T01:01:03.313Z,57.00
2024-05-09T01:02:06.219Z,57.13
2024-05-09T01:03:11.018Z,56.94
2024-05-09T01:04:13.940Z,57.27
2024-05-09T01:05:16.194Z,57.83
2024-05-09T01:06:20.771Z,58.08
2024-05-09T01:07:24.288Z,58.15
2024-05-09T01:08:27.121Z,58.15
2024-05-09T01:09:29.760Z,58.13
2024-05-09T01:10:34.892Z,58.23
2024-05-09T01:11:40.402Z,58.37
2024-05-09T01:12:42.746Z,58.80
2024-05-09T01:13:45.666Z,58.63
2024-05-09T01:14:47.808Z,59.02
2024-05-09T01:15:51.920Z,59.45
2024-05-09T01:16:54.529Z,59.55
2024-05-09T01:17:57.857Z,59.46
2024-05-09T01:19:02.166Z,59.92
2024-05-09T01:20:06.410Z,60.11
2024-05-09T01:21:09.535Z,59.94
2024-05-09T01:22:12.106Z,60.59
2024-05-09T01:23:16.035Z,60.69
2024-05-09T01:24:18.528Z,60.15
2024-05-09T01:25:22.852Z,60.53
2024-05-09T01:26:25.315Z,60.55
2024-05-09T01:27:27.359Z,60.84
2024-05-09T01:28:29.752Z,60.87
2024-05-09T01:29:32.025Z,60.48
2024-05-09T01:30:36.826Z,60.64
2024-05-09T01:31:38.593Z,60.69
2024-05-09T01:32:40.923Z,60.86
2024-05-09T01:33:43.134Z,60.72
2024-05-09T01:34:45.365Z,60.39
2024-05-09T01:35:47.402Z,60.80
2024-05-09T01:36:49.656Z,61.38
2024-05-09T01:37:52.613Z,61.46
2024-05-09T01:38:54.919Z,61.79
2024-05-09T01:39:57.374Z,61.46
2024-05-09T01:40:59.726Z,62.00
2024-05-09T01:42:02.020Z,62.13
2024-05-09T01:43:04.887Z,62.09
2024-05-09T01:44:07.327Z,62.35
2024-05-09T01:45:10.400Z,62.52
2024-05-09T01:46:14.948Z,62.83
2024-05-09T01:47:17.406Z,62.98
2024-05-09T01:48:21.981Z,63.26
2024-05-09T01:49:24.308Z,63.07
2024-05-09T01:50:37.373Z,62.43
2024-05-09T01:51:30.902Z,62.80
2024-05-09T01:52:34.903Z,62.57
2024-05-09T01:53:37.284Z,62.79
2024-05-09T01:54:40.073Z,63.01
2024-05-09T01:55:43.365Z,62.98
2024-05-09T01:56:46.150Z,62.94
2024-05-09T01:57:48.191Z,63.33
2024-05-09T01:58:50.392Z,63.16
2024-05-09T01:59:52.722Z,63.37
2024-05-09T02:00:55.066Z,62.74
2024-05-09T02:01:58.165Z,62.86
2024-05-09T02:03:00.540Z,62.79
2024-05-09T02:04:03.147Z,62.70
2024-05-09T02:05:06.299Z,63.05
2024-05-09T02:06:11.602Z,63.16
2024-05-09T02:07:13.978Z,62.73
2024-05-09T02:08:18.675Z,62.09
2024-05-09T02:09:21.354Z,62.11
2024-05-09T02:10:31.691Z,61.97
2024-05-09T02:11:27.771Z,61.88
2024-05-09T02:12:30.501Z,61.31
2024-05-09T02:13:32.574Z,60.90
2024-05-09T02:14:34.858Z,60.90
2024-05-09T02:15:37.213Z,60.79
2024-05-09T02:16:39.594Z,60.38
2024-05-09T02:17:41.876Z,60.30
2024-05-09T02:18:44.492Z,60.10
2024-05-09T02:19:46.650Z,59.97
2024-05-09T02:20:48.887Z,59.56
2024-05-09T02:21:51.529Z,59.97
2024-05-09T02:22:53.773Z,59.89
2024-05-09T02:23:55.993Z,59.61
2024-05-09T02:24:58.177Z,59.69
2024-05-09T02:27:02.851Z,59.29
2024-05-09T02:28:05.747Z,59.11
2024-05-09T02:29:08.353Z,59.10
2024-05-09T02:30:18.828Z,58.75
2024-05-09T02:31:16.469Z,58.86
2024-05-09T02:32:18.920Z,58.57
2024-05-09T02:33:21.661Z,58.75
2024-05-09T02:34:24.285Z,59.02
2024-05-09T02:35:26.842Z,59.35
2024-05-09T02:36:29.622Z,59.52
2024-05-09T02:37:31.639Z,59.52
2024-05-09T02:38:36.705Z,59.24
2024-05-09T02:39:39.305Z,59.55
2024-05-09T02:40:41.982Z,59.65
2024-05-09T02:41:44.139Z,59.81
2024-05-09T02:42:47.071Z,59.79
2024-05-09T02:43:49.356Z,59.62
2024-05-09T02:44:51.478Z,59.37
2024-05-09T02:45:53.594Z,59.43
2024-05-09T02:46:55.981Z,59.29
2024-05-09T02:47:58.818Z,59.15
2024-05-09T02:49:01.451Z,58.96
2024-05-09T02:50:06.011Z,59.11
2024-05-09T02:51:08.500Z,59.27
2024-05-09T02:52:10.918Z,58.54
2024-05-09T02:53:14.589Z,58.54
2024-05-09T02:54:17.303Z,58.98
2024-05-09T02:55:21.368Z,58.44
2024-05-09T02:56:23.794Z,58.36
2024-05-09T02:57:25.849Z,57.98
2024-05-09T02:58:28.132Z,57.72
2024-05-09T02:59:30.152Z,57.91
2024-05-09T03:00:39.126Z,57.94
2024-05-09T03:01:36.803Z,58.04
2024-05-09T03:02:42.653Z,57.38
2024-05-09T03:03:47.218Z,57.61
2024-05-09T03:04:49.544Z,57.48
2024-05-09T03:05:52.058Z,57.73
2024-05-09T03:06:54.163Z,57.79
2024-05-09T03:07:56.472Z,57.46
2024-05-09T03:09:00.227Z,57.74
2024-05-09T03:10:03.478Z,57.85
2024-05-09T03:11:06.965Z,57.81
2024-05-09T03:12:09.230Z,57.62
2024-05-09T03:13:14.739Z,57.79
2024-05-09T03:14:18.341Z,57.60
2024-05-09T03:15:22.770Z,57.27
2024-05-09T03:16:25.041Z,57.55
2024-05-09T03:17:27.471Z,57.55
2024-05-09T03:18:30.109Z,57.06
2024-05-09T03:19:34.714Z,57.06
2024-05-09T03:20:37.554Z,57.30
2024-05-09T03:21:39.837Z,57.40
2024-05-09T03:22:42.098Z,58.03
2024-05-09T03:23:44.578Z,57.70
2024-05-09T03:24:47.383Z,57.43
2024-05-09T03:25:49.527Z,57.27
2024-05-09T03:26:51.980Z,56.92
2024-05-09T03:27:54.126Z,57.25
2024-05-09T03:28:56.631Z,57.08
2024-05-09T03:29:58.974Z,56.87
2024-05-09T03:31:01.775Z,57.20
2024-05-09T03:32:04.847Z,57.05
2024-05-09T03:33:10.003Z,56.93
2024-05-09T03:34:12.861Z,57.49
2024-05-09T03:35:18.451Z,56.90
2024-05-09T03:36:21.847Z,57.19
2024-05-09T03:37:24.937Z,57.19
2024-05-09T03:38:27.133Z,56.63
2024-05-09T03:39:29.299Z,56.15
2024-05-09T03:40:31.763Z,56.50
2024-05-09T03:41:34.402Z,56.31
2024-05-09T03:42:38.980Z,56.18
2024-05-09T03:43:43.115Z,55.85
2024-05-09T03:44:45.329Z,55.91
2024-05-09T03:45:49.878Z,55.74
2024-05-09T03:46:52.214Z,55.79
2024-05-09T03:47:54.601Z,55.55
2024-05-09T03:48:57.506Z,55.30
2024-05-09T03:50:00.816Z,55.32
2024-05-09T03:51:03.381Z,55.69
2024-05-09T03:52:05.843Z,55.44
2024-05-09T03:53:12.994Z,55.70
2024-05-09T03:54:15.211Z,55.51
2024-05-09T03:55:18.428Z,55.42
2024-05-09T03:56:20.697Z,55.09
2024-05-09T03:57:22.772Z,55.06
2024-05-09T03:58:24.720Z,54.73
2024-05-09T03:59:26.986Z,54.92
2024-05-09T04:00:36.953Z,54.87
2024-05-09T04:01:35.284Z,54.88
2024-05-09T04:02:41.320Z,54.65
2024-05-09T04:03:43.843Z,54.63
2024-05-09T04:04:46.579Z,55.18
2024-05-09T04:05:48.835Z,55.18
2024-05-09T04:06:51.208Z,55.53
2024-05-09T04:07:54.474Z,54.73
2024-05-09T04:08:56.497Z,55.10
2024-05-09T04:09:58.756Z,55.10
2024-05-09T04:11:01.212Z,54.89
2024-05-09T04:12:06.880Z,54.61
2024-05-09T04:13:09.680Z,54.34
2024-05-09T04:14:11.771Z,54.89
2024-05-09T04:15:14.717Z,55.75
2024-05-09T04:16:16.972Z,54.63
2024-05-09T04:17:19.239Z,55.44
2024-05-09T04:18:21.547Z,54.55
2024-05-09T04:19:24.437Z,57.77
2024-05-09T04:20:37.220Z,54.51
2024-05-09T04:21:32.977Z,53.91
2024-05-09T04:22:35.093Z,53.68
2024-05-09T04:23:38.583Z,53.92
2024-05-09T04:24:42.475Z,53.66
2024-05-09T04:25:45.721Z,53.53
2024-05-09T04:26:54.665Z,53.12
2024-05-09T04:27:57.637Z,53.13
2024-05-09T04:29:00.330Z,53.14
2024-05-09T04:30:06.184Z,52.93
2024-05-09T04:31:08.487Z,52.85
2024-05-09T04:32:10.841Z,53.04
2024-05-09T04:33:14.677Z,52.95
2024-05-09T04:34:18.159Z,52.79
2024-05-09T04:35:21.929Z,52.50
2024-05-09T04:36:24.818Z,52.33
2024-05-09T04:37:27.399Z,52.29
2024-05-09T04:38:30.467Z,52.27
2024-05-09T04:39:33.075Z,52.09
2024-05-09T04:40:37.252Z,52.06
2024-05-09T04:41:39.758Z,52.41
2024-05-09T04:42:42.017Z,52.32
2024-05-09T04:43:44.234Z,52.80
2024-05-09T04:44:46.710Z,52.29
2024-05-09T04:45:50.255Z,52.23
2024-05-09T04:46:53.231Z,52.17
2024-05-09T04:47:57.873Z,52.04
2024-05-09T04:49:01.036Z,52.04
2024-05-09T04:50:07.137Z,51.83
2024-05-09T04:51:10.427Z,51.83
2024-05-09T04:52:13.005Z,52.16
2024-05-09T04:53:16.622Z,52.00
2024-05-09T04:54:26.263Z,51.78
2024-05-09T04:55:26.906Z,51.67
2024-05-09T04:56:29.777Z,51.35
2024-05-09T04:57:31.896Z,51.42
2024-05-09T04:58:34.680Z,51.29
2024-05-09T04:59:37.054Z,51.09
2024-05-09T05:00:40.607Z,50.84
2024-05-09T05:01:43.503Z,50.60
2024-05-09T05:02:45.660Z,50.21
2024-05-09T05:03:48.364Z,50.17
2024-05-09T05:04:51.349Z,49.89
2024-05-09T05:05:54.180Z,49.77
2024-05-09T05:06:58.378Z,49.74
2024-05-09T05:08:00.794Z,49.62
2024-05-09T05:09:03.349Z,49.59
2024-05-09T05:10:09.324Z,49.16
2024-05-09T05:11:13.598Z,48.44
2024-05-09T05:12:34.926Z,48.29
2024-05-09T05:13:40.137Z,47.69
2024-05-09T05:14:41.410Z,47.87
2024-05-09T05:15:43.655Z,47.05
2024-05-09T05:16:46.470Z,47.54
2024-05-09T05:17:49.166Z,47.33
2024-05-09T05:18:51.495Z,46.83
2024-05-09T05:19:54.202Z,47.29
2024-05-09T05:20:57.642Z,46.90
2024-05-09T05:21:59.859Z,46.58
2024-05-09T05:23:02.195Z,46.42
2024-05-09T05:24:04.778Z,46.18
2024-05-09T05:25:06.873Z,46.22
2024-05-09T05:26:10.267Z,46.09
2024-05-09T05:27:12.849Z,45.76
2024-05-09T05:28:20.821Z,46.78
2024-05-09T05:29:23.048Z,46.89
2024-05-09T05:30:29.221Z,46.59
2024-05-09T05:31:29.446Z,47.25
2024-05-09T05:32:32.011Z,47.07
2024-05-09T05:33:34.897Z,46.77
2024-05-09T05:34:37.537Z,46.64
2024-05-09T05:35:40.910Z,46.40
2024-05-09T05:36:43.457Z,45.95
2024-05-09T05:37:45.431Z,46.13
2024-05-09T05:38:47.764Z,46.27
2024-05-09T05:39:50.860Z,46.18
2024-05-09T05:40:53.206Z,46.56
2024-05-09T05:41:55.673Z,46.07
2024-05-09T05:42:58.024Z,45.35
2024-05-09T05:44:00.276Z,45.18
2024-05-09T05:45:02.506Z,44.77
2024-05-09T05:46:04.746Z,45.01
2024-05-09T05:47:06.937Z,44.92
2024-05-09T05:48:09.297Z,45.13
2024-05-09T05:49:11.673Z,45.01
2024-05-09T05:50:23.805Z,44.86
2024-05-09T05:51:18.012Z,44.73
2024-05-09T05:52:21.469Z,44.80
2024-05-09T05:53:23.980Z,45.05
2024-05-09T05:54:26.240Z,44.95
2024-05-09T05:55:28.671Z,45.15
2024-05-09T05:56:30.888Z,45.30
2024-05-09T05:57:33.450Z,45.31
2024-05-09T05:58:35.593Z,44.92
2024-05-09T05:59:38.127Z,44.90
2024-05-09T06:00:41.726Z,43.93
2024-05-09T06:01:44.854Z,43.72
2024-05-09T06:02:47.656Z,44.02
2024-05-09T06:03:50.504Z,44.35
2024-05-09T06:04:53.121Z,44.17
2024-05-09T06:05:55.501Z,43.96
2024-05-09T06:06:57.906Z,44.28
2024-05-09T06:08:00.449Z,44.39
2024-05-09T06:09:02.945Z,44.26
2024-05-09T06:10:11.439Z,44.67
2024-05-09T06:11:10.665Z,44.34
2024-05-09T06:12:13.232Z,43.93
2024-05-09T06:13:15.777Z,43.79
2024-05-09T06:14:18.185Z,43.86
2024-05-09T06:15:20.355Z,43.84
2024-05-09T06:16:23.012Z,43.79
2024-05-09T06:17:25.354Z,43.75
2024-05-09T06:18:27.712Z,43.04
2024-05-09T06:19:30.355Z,43.05
2024-05-09T06:20:36.487Z,42.23
2024-05-09T06:21:37.508Z,42.14
2024-05-09T06:22:39.741Z,42.87
2024-05-09T06:23:46.409Z,42.70
2024-05-09T06:24:48.807Z,42.69
2024-05-09T06:25:51.728Z,42.94
2024-05-09T06:26:54.385Z,43.14
2024-05-09T06:27:56.652Z,42.94
2024-05-09T06:29:01.248Z,42.44
2024-05-09T06:30:05.197Z,41.50
2024-05-09T06:31:07.421Z,41.56
2024-05-09T06:32:09.530Z,41.28
2024-05-09T06:33:13.804Z,41.99
2024-05-09T06:34:18.358Z,41.71
2024-05-09T06:35:20.992Z,41.79
2024-05-09T06:36:24.230Z,42.19
2024-05-09T06:37:27.062Z,42.74
2024-05-09T06:38:29.195Z,42.95
2024-05-09T06:39:31.311Z,42.85
2024-05-09T06:40:37.716Z,42.51
2024-05-09T06:41:38.476Z,42.79
2024-05-09T06:42:41.106Z,42.33
2024-05-09T06:43:43.703Z,41.94
2024-05-09T06:44:47.816Z,41.92
2024-05-09T06:45:54.025Z,42.43
2024-05-09T06:46:59.973Z,42.43
2024-05-09T06:48:03.093Z,42.21
2024-05-09T06:49:08.003Z,42.36
2024-05-09T06:50:19.630Z,42.62
2024-05-09T06:51:15.184Z,42.05
2024-05-09T06:52:18.763Z,42.39
2024-05-09T06:53:24.185Z,42.31
2024-05-09T06:54:26.593Z,42.53
2024-05-09T06:55:29.486Z,42.01
2024-05-09T06:56:32.702Z,40.98
2024-05-09T06:57:34.976Z,41.34
2024-05-09T06:58:37.251Z,40.37
2024-05-09T06:59:39.699Z,40.70
2024-05-09T07:00:42.649Z,41.09
2024-05-09T07:01:45.464Z,41.60
2024-05-09T07:02:47.987Z,40.20
2024-05-09T07:03:50.250Z,40.64
2024-05-09T07:04:53.159Z,40.79
2024-05-09T07:05:55.621Z,40.47
2024-05-09T07:06:57.735Z,40.13
2024-05-09T07:07:59.772Z,40.51
2024-05-09T07:09:01.975Z,41.06
2024-05-09T07:10:07.726Z,40.89
2024-05-09T07:11:10.498Z,40.54
2024-05-09T07:12:13.998Z,41.04
2024-05-09T07:13:16.474Z,40.45
2024-05-09T07:14:18.691Z,40.23
2024-05-09T07:15:21.008Z,40.29
2024-05-09T07:16:23.371Z,39.87
2024-05-09T07:17:25.695Z,39.98
2024-05-09T07:18:28.153Z,39.66
2024-05-09T07:19:30.610Z,39.85
2024-05-09T07:20:35.106Z,39.63
2024-05-09T07:21:37.825Z,39.59
2024-05-09T07:22:40.044Z,39.61
2024-05-09T07:23:43.730Z,39.77
2024-05-09T07:24:46.255Z,39.45
2024-05-09T07:25:48.522Z,39.25
2024-05-09T07:26:50.949Z,39.59
2024-05-09T07:27:53.005Z,39.70
2024-05-09T07:28:55.481Z,39.53
2024-05-09T07:29:58.418Z,39.29
2024-05-09T07:31:00.739Z,39.72
2024-05-09T07:32:03.341Z,39.35
2024-05-09T07:33:05.716Z,39.34
2024-05-09T07:34:10.215Z,39.21
2024-05-09T07:35:13.405Z,39.49
2024-05-09T07:36:15.840Z,39.52
2024-05-09T07:37:18.383Z,39.52
2024-05-09T07:38:20.823Z,38.83
2024-05-09T07:39:24.033Z,38.67
2024-05-09T07:40:33.307Z,38.34
2024-05-09T07:41:31.505Z,38.82
2024-05-09T07:42:33.695Z,38.15
2024-05-09T07:43:36.102Z,37.29
2024-05-09T07:44:38.931Z,38.51
2024-05-09T07:45:50.710Z,37.81
2024-05-09T07:47:48.489Z,37.55
2024-05-09T07:49:13.684Z,38.16
2024-05-09T07:50:35.403Z,38.62
2024-05-09T07:51:33.071Z,38.74
2024-05-09T07:53:22.148Z,39.07
2024-05-09T07:53:37.188Z,39.01
2024-05-09T07:54:16.763Z,38.75
2024-05-09T07:55:21.450Z,38.48
2024-05-09T07:56:24.684Z,37.65
2024-05-09T07:57:28.029Z,38.22
2024-05-09T07:58:30.246Z,37.58
2024-05-09T07:59:36.102Z,36.92
2024-05-09T08:00:36.616Z,37.55
2024-05-09T08:01:40.219Z,37.18
2024-05-09T08:02:42.493Z,37.24
2024-05-09T08:03:44.946Z,36.86
2024-05-09T08:04:47.868Z,36.28
2024-05-09T08:05:56.605Z,36.77
2024-05-09T08:06:59.179Z,37.25
2024-05-09T08:08:01.449Z,37.05
2024-05-09T08:09:08.034Z,36.74
2024-05-09T08:10:10.683Z,36.71
2024-05-09T08:11:12.842Z,36.54
2024-05-09T08:12:15.439Z,36.64
2024-05-09T08:13:17.661Z,36.39
2024-05-09T08:14:20.039Z,36.76
2024-05-09T08:15:23.997Z,36.96
2024-05-09T08:16:26.412Z,36.76
2024-05-09T08:17:29.067Z,37.23
2024-05-09T08:18:31.892Z,37.41
2024-05-09T08:19:36.243Z,37.56
2024-05-09T08:20:39.810Z,38.11
2024-05-09T08:21:42.015Z,38.48
2024-05-09T08:22:45.535Z,38.57
2024-05-09T08:23:47.648Z,37.67
2024-05-09T08:24:49.956Z,38.59
2024-05-09T08:25:55.194Z,37.74
2024-05-09T08:26:57.489Z,37.94
2024-05-09T08:27:59.717Z,37.56
2024-05-09T08:29:02.271Z,37.67
2024-05-09T08:30:07.913Z,37.74
2024-05-09T08:31:11.287Z,37.48
2024-05-09T08:32:13.778Z,37.53
2024-05-09T08:33:16.342Z,36.84
2024-05-09T08:34:19.057Z,37.21
2024-05-09T08:35:21.778Z,37.85
2024-05-09T08:36:24.356Z,37.70
2024-05-09T08:37:31.051Z,37.54
2024-05-09T08:38:30.863Z,37.33
2024-05-09T08:39:33.005Z,36.43
2024-05-09T08:40:37.344Z,36.99
2024-05-09T08:41:42.171Z,36.93
2024-05-09T08:42:50.141Z,36.97
2024-05-09T08:43:52.487Z,36.74
2024-05-09T08:44:55.140Z,36.80
2024-05-09T08:45:58.898Z,36.95
2024-05-09T08:47:05.717Z,37.18
2024-05-09T08:48:09.071Z,37.25
2024-05-09T08:49:13.940Z,37.31
2024-05-09T08:50:28.748Z,37.25
2024-05-09T08:51:22.106Z,37.35
2024-05-09T08:52:24.440Z,37.28
2024-05-09T08:53:27.250Z,37.19
2024-05-09T08:54:30.226Z,37.30
2024-05-09T08:55:37.278Z,37.02
2024-05-09T08:56:45.069Z,36.76
2024-05-09T08:57:48.174Z,37.06
2024-05-09T08:58:54.071Z,37.43
2024-05-09T08:59:59.851Z,37.45
2024-05-09T09:01:04.412Z,36.71
2024-05-09T09:02:10.622Z,37.36
2024-05-09T09:03:18.440Z,36.59
2024-05-09T09:04:23.119Z,37.36
2024-05-09T09:05:31.249Z,36.55
2024-05-09T09:06:35.204Z,36.66
2024-05-09T09:07:39.466Z,36.63
2024-05-09T09:08:42.341Z,36.88
2024-05-09T09:09:46.869Z,37.31
2024-05-09T09:10:52.800Z,37.11
2024-05-09T09:11:55.037Z,37.25
2024-05-09T09:13:02.856Z,37.26
2024-05-09T09:14:05.042Z,37.37
2024-05-09T09:15:07.516Z,36.63
2024-05-09T09:16:10.697Z,36.78
2024-05-09T09:17:15.379Z,36.69
2024-05-09T09:18:18.675Z,36.91
2024-05-09T09:19:23.247Z,36.84
2024-05-09T09:20:34.078Z,36.73
2024-05-09T09:21:31.022Z,37.21
2024-05-09T09:22:34.234Z,36.40
2024-05-09T09:23:38.280Z,36.30
2024-05-09T09:24:40.944Z,36.06
2024-05-09T09:25:43.075Z,36.68
2024-05-09T09:26:45.372Z,36.68
2024-05-09T09:27:48.034Z,36.67
2024-05-09T09:28:51.133Z,36.88
2024-05-09T09:29:55.450Z,36.76
2024-05-09T09:31:02.469Z,36.51
2024-05-09T09:32:06.828Z,36.00
2024-05-09T09:33:10.224Z,35.90
2024-05-09T09:34:12.875Z,36.33
2024-05-09T09:35:16.725Z,36.38
2024-05-09T09:36:19.393Z,35.54
2024-05-09T09:37:24.944Z,35.92
2024-05-09T09:38:30.840Z,36.35
2024-05-09T09:39:36.534Z,36.53
2024-05-09T09:40:46.856Z,35.65
2024-05-09T09:41:48.366Z,35.99
2024-05-09T09:42:56.700Z,35.51
2024-05-09T09:44:01.295Z,35.57
2024-05-09T09:45:05.722Z,35.60
2024-05-09T09:46:12.459Z,36.13
2024-05-09T09:47:15.848Z,34.89
2024-05-09T09:48:19.594Z,35.81
2024-05-09T09:49:25.488Z,35.95
2024-05-09T09:50:34.222Z,35.62
2024-05-09T09:51:32.755Z,35.61
2024-05-09T09:52:35.865Z,35.84
2024-05-09T09:53:39.259Z,35.32
2024-05-09T09:54:44.555Z,35.08
2024-05-09T09:55:47.974Z,35.28
2024-05-09T09:56:50.818Z,34.59
2024-05-09T09:57:55.408Z,35.18
2024-05-09T09:59:00.952Z,35.07
2024-05-09T10:00:09.404Z,35.42
2024-05-09T10:01:10.211Z,35.31
2024-05-09T10:02:13.641Z,35.49
2024-05-09T10:03:16.718Z,35.28
2024-05-09T10:04:19.577Z,34.67
2024-05-09T10:05:23.042Z,34.14
2024-05-09T10:06:28.280Z,34.20
2024-05-09T10:07:32.116Z,33.80
2024-05-09T10:08:35.747Z,33.63
2024-05-09T10:09:39.433Z,34.50
2024-05-09T10:10:46.964Z,34.50
2024-05-09T10:11:52.433Z,33.93
2024-05-09T10:13:09.408Z,34.04
2024-05-09T10:14:12.066Z,34.07
2024-05-09T10:15:17.857Z,34.35
2024-05-09T10:16:23.766Z,34.43
2024-05-09T10:17:26.324Z,34.09
2024-05-09T10:18:34.144Z,33.81
2024-05-09T10:19:36.299Z,34.14
2024-05-09T10:20:39.911Z,33.72
2024-05-09T10:21:48.769Z,34.22
2024-05-09T10:22:51.306Z,34.09
2024-05-09T10:23:59.426Z,33.89
2024-05-09T10:25:07.125Z,33.88
2024-05-09T10:26:09.560Z,33.20
2024-05-09T10:27:11.916Z,34.05
2024-05-09T10:28:15.644Z,34.41
2024-05-09T10:29:18.882Z,34.06
2024-05-09T10:30:29.818Z,33.27
2024-05-09T10:31:31.647Z,33.61
2024-05-09T10:32:39.190Z,34.14
2024-05-09T10:33:48.706Z,33.99
2024-05-09T10:35:18.165Z,33.69
2024-05-09T10:36:25.504Z,34.03
2024-05-09T10:37:29.717Z,34.30
2024-05-09T10:38:32.159Z,33.83
2024-05-09T10:39:36.547Z,34.23
2024-05-09T10:40:41.085Z,33.79
2024-05-09T10:41:44.375Z,33.66
2024-05-09T10:42:46.658Z,33.76
2024-05-09T10:43:50.742Z,33.51
2024-05-09T10:44:53.294Z,33.22
2024-05-09T10:45:55.983Z,33.28
2024-05-09T10:46:58.864Z,33.71
2024-05-09T10:48:01.436Z,33.06
2024-05-09T10:49:07.166Z,33.52
2024-05-09T10:50:18.051Z,34.16
2024-05-09T10:51:13.776Z,34.16
2024-05-09T10:52:23.644Z,33.66
2024-05-09T10:53:25.977Z,34.04
2024-05-09T10:54:36.572Z,34.22
2024-05-09T10:55:38.972Z,34.40
2024-05-09T10:56:42.017Z,34.03
2024-05-09T10:57:44.681Z,33.88
2024-05-09T10:58:47.530Z,34.44
2024-05-09T10:59:50.304Z,35.01
2024-05-09T11:00:57.182Z,34.48
2024-05-09T11:02:02.809Z,34.33
2024-05-09T11:03:05.484Z,34.73
2024-05-09T11:04:08.130Z,33.78
2024-05-09T11:05:10.623Z,34.16
2024-05-09T11:06:18.063Z,33.75
2024-05-09T11:07:21.309Z,34.57
2024-05-09T11:08:24.688Z,33.63
2024-05-09T11:09:27.059Z,34.00
2024-05-09T11:10:33.816Z,34.30
2024-05-09T11:11:34.072Z,33.67
2024-05-09T11:12:36.768Z,33.59
2024-05-09T11:13:40.356Z,33.23
2024-05-09T11:14:53.535Z,32.78
2024-05-09T11:15:56.039Z,32.48
2024-05-09T11:17:08.599Z,31.61
2024-05-09T11:18:15.005Z,31.85
2024-05-09T11:19:19.405Z,32.40
2024-05-09T11:20:29.116Z,31.98
2024-05-09T11:21:26.644Z,32.02
2024-05-09T11:22:36.055Z,32.08
2024-05-09T11:23:38.547Z,32.27
2024-05-09T11:24:41.029Z,32.30
2024-05-09T11:25:51.848Z,32.32
2024-05-09T11:26:58.331Z,31.79
2024-05-09T11:28:01.224Z,31.75
2024-05-09T11:29:03.856Z,31.21
2024-05-09T11:30:14.321Z,32.06
2024-05-09T11:31:15.030Z,32.25
2024-05-09T11:32:21.020Z,32.12
2024-05-09T11:33:23.275Z,31.07
2024-05-09T11:34:25.958Z,29.99
2024-05-09T11:35:28.961Z,29.43
2024-05-09T11:36:31.792Z,29.09
2024-05-09T11:37:36.830Z,28.90
2024-05-09T11:38:38.396Z,27.66
2024-05-09T11:39:40.773Z,28.74
2024-05-09T11:40:43.507Z,27.45
2024-05-09T11:41:46.061Z,27.76
2024-05-09T11:42:50.819Z,26.67
2024-05-09T11:43:52.641Z,27.11
2024-05-09T11:44:55.053Z,26.26
2024-05-09T11:45:58.153Z,26.34
2024-05-09T11:47:00.765Z,26.21
2024-05-09T11:48:03.891Z,26.43
2024-05-09T11:49:06.424Z,26.62
2024-05-09T11:50:15.976Z,25.99
2024-05-09T11:51:13.946Z,26.06
2024-05-09T11:52:16.694Z,25.31
2024-05-09T11:53:19.082Z,24.63
2024-05-09T11:54:21.522Z,25.25
2024-05-09T11:55:28.060Z,25.32
2024-05-09T11:56:30.224Z,25.32
2024-05-09T11:57:32.704Z,25.78
2024-05-09T11:58:37.982Z,25.02
2024-05-09T11:59:40.294Z,24.62
2024-05-09T12:00:42.962Z,25.17
2024-05-09T12:01:45.691Z,24.71
2024-05-09T12:02:48.229Z,23.93
2024-05-09T12:03:50.959Z,23.83
2024-05-09T12:04:54.315Z,23.65
2024-05-09T12:05:56.671Z,24.19
2024-05-09T12:06:59.698Z,23.27
2024-05-09T12:08:02.614Z,24.20
2024-05-09T12:09:05.441Z,24.76
2024-05-09T12:10:13.931Z,23.37
2024-05-09T12:11:13.204Z,23.66
2024-05-09T12:12:15.571Z,23.45
2024-05-09T12:13:17.999Z,23.11
2024-05-09T12:14:20.006Z,22.40
2024-05-09T12:15:22.150Z,22.95
2024-05-09T12:16:25.187Z,22.87
2024-05-09T12:17:28.188Z,23.21
2024-05-09T12:18:31.138Z,23.64
2024-05-09T12:19:33.940Z,24.19
2024-05-09T12:20:39.293Z,22.84
2024-05-09T12:21:41.012Z,22.19
2024-05-09T12:22:43.173Z,22.58
2024-05-09T12:23:46.174Z,22.18
2024-05-09T12:24:48.426Z,22.65
2024-05-09T12:25:50.619Z,22.61
2024-05-09T12:26:53.185Z,22.82
2024-05-09T12:27:55.557Z,22.45
2024-05-09T12:28:58.594Z,22.35
2024-05-09T12:30:01.198Z,23.41
2024-05-09T12:31:03.633Z,23.52
2024-05-09T12:32:06.400Z,23.80
2024-05-09T12:33:13.628Z,22.90
2024-05-09T12:34:16.360Z,22.64
2024-05-09T12:35:19.143Z,22.60
2024-05-09T12:36:21.535Z,23.04
2024-05-09T12:37:23.841Z,23.22
2024-05-09T12:38:26.320Z,23.52
2024-05-09T12:39:28.671Z,23.54
2024-05-09T12:40:36.032Z,23.85
2024-05-09T12:41:35.404Z,23.10
2024-05-09T12:42:37.671Z,22.08
2024-05-09T12:43:39.666Z,21.95
2024-05-09T12:44:41.645Z,22.06
2024-05-09T12:45:44.016Z,21.78
2024-05-09T12:46:46.291Z,22.27
2024-05-09T12:47:48.578Z,21.78
2024-05-09T12:48:53.058Z,22.46
2024-05-09T12:49:55.874Z,20.75
2024-05-09T12:50:58.266Z,20.85
2024-05-09T12:52:00.261Z,20.04
2024-05-09T12:53:03.737Z,21.32
2024-05-09T12:54:06.643Z,21.18
2024-05-09T12:55:10.509Z,21.20
2024-05-09T12:56:14.453Z,21.59
2024-05-09T12:57:16.790Z,20.34
2024-05-09T12:58:21.130Z,21.05
2024-05-09T12:59:23.480Z,21.42
2024-05-09T13:00:31.574Z,20.53
2024-05-09T13:01:31.797Z,20.12
2024-05-09T13:02:34.014Z,20.04
2024-05-09T13:03:36.985Z,19.61
2024-05-09T13:04:39.719Z,19.78
2024-05-09T13:05:44.142Z,19.81
2024-05-09T13:06:47.569Z,19.41
2024-05-09T13:07:50.365Z,20.44
2024-05-09T13:08:52.633Z,20.37
2024-05-09T13:09:54.994Z,19.73
2024-05-09T13:10:58.389Z,20.02
2024-05-09T13:12:00.907Z,20.09
2024-05-09T13:13:05.201Z,19.86
2024-05-09T13:14:07.407Z,19.55
2024-05-09T13:15:09.451Z,18.99
2024-05-09T13:16:12.220Z,18.93
2024-05-09T13:17:14.582Z,19.31
2024-05-09T13:18:17.357Z,18.88
2024-05-09T13:19:19.919Z,18.51
2024-05-09T13:20:29.398Z,19.07
2024-05-09T13:21:27.244Z,19.23
2024-05-09T13:22:30.672Z,18.45
2024-05-09T13:23:32.863Z,18.67
2024-05-09T13:24:35.334Z,18.70
2024-05-09T13:25:38.320Z,19.23
2024-05-09T13:26:40.935Z,19.06
2024-05-09T13:27:43.223Z,19.54
2024-05-09T13:28:45.453Z,18.48
2024-05-09T13:29:47.591Z,19.67
2024-05-09T13:30:49.923Z,19.49
2024-05-09T13:31:55.478Z,19.03
2024-05-09T13:32:59.385Z,19.63
2024-05-09T13:34:01.726Z,19.30
2024-05-09T13:35:04.232Z,20.07
2024-05-09T13:36:07.756Z,19.75
2024-05-09T13:37:10.216Z,19.85
2024-05-09T13:38:13.417Z,19.20